Accueil
METAR-TAF:

METAR-TAF

Aéroports :

Aéroport Châlons-Vatry

Châlons-en-Champagne, France

latitude: 48-46-34N, longitude: 004-11-04E, altitude: 179 m

Observation

Le bulletin a été fait il y a 16 minutes, à 17:30 UTC
Vent 4 kt de nord/nord-est
Température 6°C
Humidité 93%
Pression 1019 hPa
Visibilité: 7000 m

METAR: LFOK 261730Z AUTO 02004KT 7000 NSC 06/05 Q1019 NOSIG

Heure: 18:46 (17:46 UTC)

Prévision

Le bulletin a été fait il y a 46 minutes, à 17:00 UTC
Prévision valable du 26 à 18 UTC au 27 à 18 UTC
Vent 2 kt de direction variable
Visibilité: 8000 m
Probabilité 40%
du 27 à 06 UTC au 27 à 08 UTC
Visibilité: 4000 m
brume

TAF: LFOK 261700Z 2618/2718 VRB02KT 8000 NSC PROB40 2706/2708 4000 BR

Observations et prévisions météorologiques de plus de 4000 aéroports (messages METAR et TAF).

Les stations disponibles sont représentées par des disques jaunes et rouges sur la carte.

Passer la souris dessus pour voir le nom de la station.

Cliquer dessus pour voir les observations et prévisions météorologiques.

Pour changer de carte: cliquez sur les boutons verts avec une croix noire pour zoomer, sur le bouton vert avec un tiret pour effectuer un zoom arrière, ou sur les flèches vertes pour les cartes adjacentes.


METAR-TAF: